Time;durP1;ratioP1;P1;durP2;ratioP2;P2;SDS_P1;SDS_P2;PMS_P1;PMS_P2;Temp;Humidity;BMP_temperature;BMP_pressure;BME280_temperature;BME280_humidity;BME280_pressure;Samples;Min_cycle;Max_cycle;Signal;HPM_P1;HPM_P2
2023/03/30 00:01:15;;;;;;;9.95;2.83;;;14.40;71.30;;;;;;4969610;28;20047;-86
2023/03/30 00:03:43;;;;;;;11.27;2.38;;;14.30;71.20;;;;;;4985710;28;20049;-86
2023/03/30 00:06:11;;;;;;;7.97;2.50;;;14.30;71.20;;;;;;4985129;28;20034;-86
2023/03/30 00:08:37;;;;;;;7.65;2.65;;;14.30;71.20;;;;;;4986264;28;20031;-85
2023/03/30 00:11:09;;;;;;;12.65;2.75;;;14.20;71.00;;;;;;4971296;28;20035;-85
2023/03/30 00:13:36;;;;;;;9.90;3.05;;;14.20;71.00;;;;;;4973018;28;20482;-85
2023/03/30 00:16:05;;;;;;;7.70;2.50;;;14.20;71.00;;;;;;4971495;28;20026;-85
2023/03/30 00:18:33;;;;;;;6.80;2.78;;;14.10;70.90;;;;;;4950807;28;20122;-84
2023/03/30 00:21:01;;;;;;;5.57;1.85;;;14.10;70.90;;;;;;4968092;28;20034;-82
2023/03/30 00:23:29;;;;;;;8.32;2.65;;;14.00;70.70;;;;;;4968257;28;20520;-83
2023/03/30 00:25:56;;;;;;;6.18;1.60;;;14.00;70.80;;;;;;4962698;28;20382;-83
2023/03/30 00:28:25;;;;;;;8.80;2.97;;;13.90;70.60;;;;;;4966240;28;20042;-82
2023/03/30 00:30:52;;;;;;;16.35;3.28;;;13.90;70.60;;;;;;4969401;28;20133;-81
2023/03/30 00:33:22;;;;;;;6.10;1.90;;;13.80;70.50;;;;;;4964259;28;20035;-81
2023/03/30 00:35:56;;;;;;;11.23;3.83;;;13.80;70.50;;;;;;4967665;28;20031;-81
2023/03/30 00:38:26;;;;;;;7.57;1.80;;;13.70;70.40;;;;;;4966237;28;20038;-81
2023/03/30 00:40:54;;;;;;;7.45;1.88;;;13.70;70.40;;;;;;4983433;28;20101;-82
2023/03/30 00:43:20;;;;;;;9.73;2.75;;;13.60;70.30;;;;;;4972217;28;20110;-80
2023/03/30 00:45:47;;;;;;;10.30;1.92;;;13.60;70.30;;;;;;4967050;28;20090;-82
2023/03/30 00:48:21;;;;;;;8.30;2.63;;;13.60;70.30;;;;;;4978268;28;20027;-80
2023/03/30 00:51:10;;;;;;;12.65;2.38;;;13.60;70.80;;;;;;4974541;28;20143;-79
2023/03/30 00:53:46;;;;;;;10.73;3.45;;;13.50;70.10;;;;;;4962705;28;20035;-81
2023/03/30 00:56:15;;;;;;;10.15;2.25;;;13.50;70.10;;;;;;4968333;28;20035;-82
2023/03/30 00:58:43;;;;;;;9.32;2.20;;;13.50;70.00;;;;;;4964326;28;20065;-80
2023/03/30 01:01:13;;;;;;;9.25;2.72;;;13.50;70.10;;;;;;4979894;28;20380;-82
2023/03/30 01:03:47;;;;;;;12.50;2.40;;;13.50;70.00;;;;;;4963750;28;20038;-82
2023/03/30 01:06:20;;;;;;;7.57;2.15;;;13.50;70.00;;;;;;4966234;28;20479;-82
2023/03/30 01:08:49;;;;;;;11.30;3.08;;;13.50;70.00;;;;;;4980812;28;20047;-80
2023/03/30 01:11:15;;;;;;;10.02;3.20;;;13.50;70.00;;;;;;4968756;28;20034;-80
2023/03/30 01:13:45;;;;;;;12.82;2.45;;;13.50;70.00;;;;;;4978674;28;20042;-82
2023/03/30 01:16:32;;;;;;;15.23;3.85;;;13.50;69.90;;;;;;4965896;28;20110;-81
2023/03/30 01:19:33;;;;;;;16.27;4.00;;;13.40;69.70;;;;;;4962597;28;20041;-81
2023/03/30 01:22:26;;;;;;;10.63;3.13;;;13.50;69.90;;;;;;4963649;28;20046;-82
2023/03/30 01:25:20;;;;;;;9.02;2.55;;;13.40;69.60;;;;;;4968390;28;20046;-82
2023/03/30 01:28:04;;;;;;;;;;;13.40;69.60;;;;;;4968262;28;20037;-85
2023/03/30 01:31:13;;;;;;;8.02;2.38;;;13.40;70.10;;;;;;4970712;28;20005;-82
2023/03/30 01:34:20;;;;;;;9.18;2.17;;;13.40;69.50;;;;;;4961284;28;20046;-83
2023/03/30 01:37:26;;;;;;;11.43;2.03;;;13.40;69.50;;;;;;4982765;28;20081;-82
2023/03/30 01:40:16;;;;;;;9.52;2.92;;;13.40;69.50;;;;;;4981897;28;20522;-82
2023/03/30 01:43:17;;;;;;;9.02;2.03;;;13.40;69.50;;;;;;4982055;28;20062;-84
2023/03/30 01:45:45;;;;;;;14.80;3.35;;;13.40;69.50;;;;;;4962065;28;20498;-84
2023/03/30 01:48:34;;;;;;;7.72;1.52;;;13.40;69.50;;;;;;4969006;28;20516;-85
2023/03/30 01:51:08;;;;;;;9.38;2.38;;;13.40;69.50;;;;;;4967516;28;20026;-83
2023/03/30 01:53:41;;;;;;;9.75;3.05;;;13.30;69.30;;;;;;4984831;28;20523;-84
2023/03/30 01:56:18;;;;;;;7.07;2.50;;;13.30;69.30;;;;;;4970105;28;20031;-85
2023/03/30 01:59:09;;;;;;;10.25;2.55;;;13.30;69.80;;;;;;4967347;28;20038;-82
2023/03/30 02:01:40;;;;;;;10.80;2.97;;;13.30;69.30;;;;;;4968923;28;20019;-83
2023/03/30 02:04:09;;;;;;;10.15;2.40;;;13.30;69.20;;;;;;4963698;28;20038;-83
2023/03/30 02:06:42;;;;;;;12.40;2.92;;;13.30;69.20;;;;;;4974935;28;20037;-84
2023/03/30 02:09:14;;;;;;;;;;;13.30;69.20;;;;;;4967058;28;20030;-82
2023/03/30 02:11:44;;;;;;;10.55;2.03;;;13.30;69.20;;;;;;4966810;28;19910;-83
2023/03/30 02:14:12;;;;;;;12.10;3.15;;;13.30;69.10;;;;;;4965513;28;20225;-84
2023/03/30 02:16:47;;;;;;;9.88;2.13;;;13.30;69.10;;;;;;4985293;28;20114;-83
2023/03/30 02:19:14;;;;;;;11.90;2.17;;;13.30;69.10;;;;;;4984231;28;20030;-83
2023/03/30 02:21:41;;;;;;;10.10;2.33;;;13.30;69.10;;;;;;4967641;28;20043;-82
2023/03/30 02:24:18;;;;;;;13.93;3.38;;;13.30;69.10;;;;;;4961706;28;20324;-80
2023/03/30 02:26:50;;;;;;;10.52;2.72;;;13.20;69.00;;;;;;4976229;28;20039;-82
2023/03/30 02:29:16;;;;;;;14.75;3.65;;;13.30;69.20;;;;;;4973124;28;20030;-80
2023/03/30 02:31:45;;;;;;;12.60;3.28;;;13.30;69.20;;;;;;4969108;28;20045;-82
2023/03/30 02:34:45;;;;;;;9.77;2.25;;;13.30;69.20;;;;;;4972908;28;20054;-82
2023/03/30 02:37:17;;;;;;;11.85;2.88;;;13.20;69.00;;;;;;4985005;28;20049;-81
2023/03/30 02:39:54;;;;;;;12.57;2.72;;;13.20;69.00;;;;;;4970126;28;20121;-81
2023/03/30 02:42:36;;;;;;;9.77;2.50;;;13.20;69.00;;;;;;4982108;28;20039;-82
2023/03/30 02:45:36;;;;;;;13.95;3.45;;;13.20;69.10;;;;;;4985444;28;20395;-81
2023/03/30 02:48:30;;;;;;;9.60;2.50;;;13.20;69.00;;;;;;4969924;28;20042;-81
2023/03/30 02:51:11;;;;;;;7.72;1.80;;;13.10;68.80;;;;;;4992617;28;20042;-82
2023/03/30 02:54:13;;;;;;;9.68;2.85;;;13.20;69.00;;;;;;4965065;28;20070;-82
2023/03/30 02:57:20;;;;;;;11.48;3.20;;;13.20;69.00;;;;;;4972489;28;20514;-82
2023/03/30 03:00:07;;;;;;;13.98;2.40;;;13.20;69.00;;;;;;4964720;28;20486;-81
2023/03/30 03:02:39;;;;;;;13.43;2.92;;;13.10;68.90;;;;;;4970437;28;20146;-81
2023/03/30 03:05:18;;;;;;;9.82;3.08;;;13.10;68.90;;;;;;4984246;28;20039;-80
2023/03/30 03:07:52;;;;;;;14.20;2.70;;;13.10;68.80;;;;;;4985851;28;20102;-80
2023/03/30 03:10:18;;;;;;;12.48;3.35;;;13.10;68.90;;;;;;4987403;28;20385;-80
2023/03/30 03:12:45;;;;;;;9.65;2.33;;;13.10;68.90;;;;;;4969780;28;20038;-80
2023/03/30 03:15:12;;;;;;;13.65;2.90;;;13.10;68.90;;;;;;4986919;28;20109;-81
2023/03/30 03:17:50;;;;;;;14.13;3.97;;;13.10;68.90;;;;;;4965078;28;20049;-81
2023/03/30 03:20:17;;;;;;;13.35;3.13;;;13.10;68.90;;;;;;4985721;28;20030;-82
2023/03/30 03:22:42;;;;;;;10.57;2.85;;;13.10;68.90;;;;;;4970759;28;20216;-82
2023/03/30 03:25:09;;;;;;;10.95;2.65;;;13.10;68.90;;;;;;4987727;28;20457;-81
2023/03/30 03:27:51;;;;;;;12.20;3.38;;;13.10;68.90;;;;;;4976660;28;20283;-82
2023/03/30 03:30:21;;;;;;;11.50;2.55;;;13.10;68.90;;;;;;4971546;28;20027;-81
2023/03/30 03:32:57;;;;;;;15.63;3.40;;;13.10;68.80;;;;;;4984391;28;20050;-80
2023/03/30 03:35:26;;;;;;;13.95;2.85;;;13.10;68.90;;;;;;4969301;28;20167;-82
2023/03/30 03:37:52;;;;;;;13.75;3.15;;;13.10;68.90;;;;;;4964150;28;20501;-82
2023/03/30 03:40:21;;;;;;;15.73;2.95;;;13.10;68.90;;;;;;4971951;28;20035;-82
2023/03/30 03:42:47;;;;;;;13.23;3.60;;;13.10;68.90;;;;;;4970991;28;20043;-82
2023/03/30 03:45:14;;;;;;;10.40;2.17;;;13.10;68.90;;;;;;4971370;28;20101;-82
2023/03/30 03:47:56;;;;;;;14.73;3.00;;;13.10;68.90;;;;;;4986805;28;20042;-83
2023/03/30 03:50:43;;;;;;;10.43;3.88;;;13.10;69.00;;;;;;4975044;28;20233;-82
2023/03/30 03:53:11;;;;;;;16.98;2.85;;;13.10;68.90;;;;;;4979852;28;20371;-80
2023/03/30 03:55:37;;;;;;;11.85;2.50;;;13.10;69.00;;;;;;4985253;28;20027;-80
2023/03/30 03:58:09;;;;;;;9.63;3.05;;;13.10;69.00;;;;;;4969378;28;20383;-79
2023/03/30 04:00:35;;;;;;;17.17;4.45;;;13.10;69.00;;;;;;4970242;28;20045;-76
2023/03/30 04:03:03;;;;;;;10.73;3.22;;;13.10;69.00;;;;;;4970001;28;20386;-79
2023/03/30 04:05:29;;;;;;;13.40;3.65;;;13.10;69.00;;;;;;4967759;28;20054;-80
2023/03/30 04:07:55;;;;;;;10.80;2.65;;;13.10;69.00;;;;;;4985880;28;20052;-80
2023/03/30 04:10:24;;;;;;;14.18;3.88;;;13.10;69.10;;;;;;4971811;28;20097;-80
2023/03/30 04:13:09;;;;;;;13.27;3.90;;;13.10;69.10;;;;;;4969896;28;20118;-80
2023/03/30 04:15:53;;;;;;;9.20;3.85;;;13.10;69.10;;;;;;4983575;28;20034;-78
2023/03/30 04:18:20;;;;;;;13.43;3.33;;;13.10;69.10;;;;;;4970281;28;20035;-84
2023/03/30 04:21:05;;;;;;;12.43;3.20;;;13.10;69.10;;;;;;4960273;28;20118;-79
2023/03/30 04:23:50;;;;;;;14.55;3.80;;;13.00;68.90;;;;;;4971855;28;20394;-83
2023/03/30 04:26:19;;;;;;;8.98;2.22;;;13.10;69.20;;;;;;4971289;28;20075;-80
2023/03/30 04:29:05;;;;;;;11.50;3.35;;;13.10;69.20;;;;;;4968121;28;20034;-79
2023/03/30 04:31:34;;;;;;;12.60;3.13;;;13.10;69.20;;;;;;4984884;28;20038;-81
2023/03/30 04:34:35;;;;;;;11.57;3.45;;;13.00;69.10;;;;;;4969396;28;20246;-82
2023/03/30 04:37:03;;;;;;;11.80;2.42;;;13.00;69.10;;;;;;4979178;28;20035;-82
2023/03/30 04:39:49;;;;;;;12.68;3.38;;;13.00;69.20;;;;;;4965738;28;20090;-81
2023/03/30 04:42:36;;;;;;;18.35;3.10;;;13.00;69.20;;;;;;4967341;28;20043;-80
2023/03/30 04:45:17;;;;;;;9.43;2.97;;;13.00;69.20;;;;;;4971180;28;20161;-82
2023/03/30 04:47:58;;;;;;;12.15;2.63;;;13.00;69.30;;;;;;4964160;28;20142;-81
2023/03/30 04:50:56;;;;;;;9.68;2.50;;;12.90;69.10;;;;;;4973858;28;20207;-81
2023/03/30 04:53:33;;;;;;;14.35;2.88;;;12.90;69.20;;;;;;4985875;28;20087;-81
2023/03/30 04:56:05;;;;;;;11.63;2.95;;;12.90;69.20;;;;;;4987286;28;20104;-82
2023/03/30 04:58:54;;;;;;;12.45;3.05;;;13.00;69.40;;;;;;4987428;28;20050;-81
2023/03/30 05:01:47;;;;;;;12.10;2.88;;;12.90;69.20;;;;;;4991616;28;20081;-80
2023/03/30 05:04:31;;;;;;;11.13;3.00;;;13.00;69.40;;;;;;4984959;28;20086;-80
2023/03/30 05:07:06;;;;;;;13.55;4.38;;;12.90;69.30;;;;;;4988278;28;20038;-79
2023/03/30 05:09:57;;;;;;;12.38;2.90;;;13.00;69.50;;;;;;4987342;28;20051;-81
2023/03/30 05:12:41;;;;;;;12.60;3.03;;;12.90;69.30;;;;;;4966214;28;20045;-81
2023/03/30 05:15:27;;;;;;;10.88;2.85;;;12.90;69.40;;;;;;4969430;28;20105;-80
2023/03/30 05:18:15;;;;;;;10.68;2.95;;;12.90;69.40;;;;;;4981240;28;20603;-81
2023/03/30 05:20:50;;;;;;;13.63;3.83;;;12.90;69.40;;;;;;4968762;28;20394;-80
2023/03/30 05:23:33;;;;;;;;;;;12.90;69.50;;;;;;4965035;28;20117;-80
2023/03/30 05:26:14;;;;;;;8.85;2.83;;;12.90;69.50;;;;;;4966371;28;20273;-83
2023/03/30 05:28:41;;;;;;;13.90;4.25;;;12.90;69.40;;;;;;4982784;28;20058;-82
2023/03/30 05:31:22;;;;;;;13.87;3.77;;;12.80;69.30;;;;;;4960785;28;20169;-82
2023/03/30 05:34:15;;;;;;;13.38;3.65;;;12.80;69.40;;;;;;4960945;28;20073;-82
2023/03/30 05:36:59;;;;;;;11.20;2.45;;;12.90;69.60;;;;;;4978898;28;20042;-87
2023/03/30 05:39:43;;;;;;;11.23;3.03;;;12.80;69.50;;;;;;4965735;28;20031;-86
2023/03/30 05:42:42;;;;;;;15.40;3.58;;;12.80;69.60;;;;;;4956708;28;20206;-84
2023/03/30 05:45:34;;;;;;;13.32;3.53;;;12.80;69.60;;;;;;4961999;28;20074;-82
2023/03/30 05:48:27;;;;;;;10.63;2.35;;;12.80;69.70;;;;;;4963520;28;20038;-82
2023/03/30 05:51:18;;;;;;;11.00;3.22;;;12.80;69.70;;;;;;4962783;28;20078;-81
2023/03/30 05:54:04;;;;;;;10.85;2.65;;;12.70;69.60;;;;;;4978304;28;20043;-83
2023/03/30 05:56:53;;;;;;;9.05;2.75;;;12.80;69.80;;;;;;4953812;28;20465;-82
2023/03/30 05:59:32;;;;;;;10.80;2.50;;;12.70;69.80;;;;;;4967948;28;20033;-78
2023/03/30 06:02:16;;;;;;;9.77;2.95;;;12.80;70.00;;;;;;4960593;28;20121;-82
2023/03/30 06:04:44;;;;;;;15.00;4.38;;;12.80;70.00;;;;;;4978455;28;20037;-80
2023/03/30 06:07:11;;;;;;;10.20;2.97;;;12.80;70.20;;;;;;4971642;28;20043;-81
2023/03/30 06:09:37;;;;;;;13.07;3.28;;;12.80;70.30;;;;;;4975779;28;20031;-81
2023/03/30 06:12:15;;;;;;;9.70;2.80;;;12.80;70.40;;;;;;4963832;28;20498;-84
2023/03/30 06:14:43;;;;;;;10.75;2.65;;;12.80;70.40;;;;;;4980151;28;20038;-82
2023/03/30 06:17:22;;;;;;;11.63;4.20;;;12.80;70.50;;;;;;4980941;28;20042;-87
2023/03/30 06:19:49;;;;;;;12.93;3.85;;;12.80;70.60;;;;;;4962352;28;20035;-85
2023/03/30 06:22:16;;;;;;;12.85;3.13;;;12.90;70.90;;;;;;4965748;28;20512;-85
2023/03/30 06:25:02;;;;;;;8.20;2.45;;;12.90;71.10;;;;;;4979723;28;20085;-85
2023/03/30 06:27:31;;;;;;;16.15;3.72;;;13.00;71.50;;;;;;4961638;28;20043;-81
2023/03/30 06:29:59;;;;;;;11.35;2.95;;;13.00;71.60;;;;;;4966254;28;20118;-86
2023/03/30 06:32:26;;;;;;;15.45;4.22;;;13.10;71.90;;;;;;4981467;28;20042;-87
2023/03/30 06:35:12;;;;;;;14.00;3.42;;;13.10;71.80;;;;;;4966499;28;20489;-85
2023/03/30 06:37:41;;;;;;;15.40;4.70;;;13.10;71.70;;;;;;4955392;28;20038;-85
2023/03/30 06:40:14;;;;;;;10.25;4.32;;;13.20;71.90;;;;;;4974120;28;20043;-86
2023/03/30 06:42:43;;;;;;;11.13;2.85;;;13.20;71.90;;;;;;4978963;28;20051;-84
2023/03/30 06:45:17;;;;;;;9.80;2.38;;;13.30;72.00;;;;;;4966526;28;20039;-84
2023/03/30 06:47:46;;;;;;;13.93;3.60;;;13.30;71.90;;;;;;4961804;28;20514;-84
2023/03/30 06:50:13;;;;;;;10.68;2.47;;;13.30;71.90;;;;;;4966052;28;20693;-83
2023/03/30 06:52:47;;;;;;;14.47;3.87;;;13.40;72.00;;;;;;4962028;28;20046;-84
2023/03/30 06:55:13;;;;;;;16.05;3.20;;;13.40;71.90;;;;;;4963257;28;20682;-83
2023/03/30 06:57:39;;;;;;;13.52;3.80;;;13.40;71.90;;;;;;4946525;28;20049;-85
2023/03/30 07:00:12;;;;;;;12.70;4.03;;;13.40;71.80;;;;;;4978648;28;20088;-84
2023/03/30 07:02:39;;;;;;;13.45;2.70;;;13.50;71.90;;;;;;4969956;28;20100;-86
2023/03/30 07:05:17;;;;;;;12.15;2.90;;;13.60;71.90;;;;;;4968531;28;20066;-85
2023/03/30 07:08:07;;;;;;;11.18;2.75;;;13.60;71.70;;;;;;4966943;28;20034;-85
2023/03/30 07:10:35;;;;;;;14.95;2.97;;;13.70;71.80;;;;;;4980162;28;20047;-87
2023/03/30 07:13:06;;;;;;;16.17;3.67;;;13.60;71.60;;;;;;4967621;28;20093;-86
2023/03/30 07:15:33;;;;;;;16.20;4.10;;;13.60;71.70;;;;;;4968210;28;20034;-88
2023/03/30 07:17:59;;;;;;;6.85;2.45;;;13.60;71.70;;;;;;4969177;28;20042;-86
2023/03/30 07:20:26;;;;;;;12.82;2.92;;;13.60;71.70;;;;;;4971461;28;20027;-85
2023/03/30 07:23:31;;;;;;;13.63;3.75;;;13.60;71.60;;;;;;4965449;28;20085;-87
2023/03/30 07:25:58;;;;;;;11.18;2.65;;;13.60;71.70;;;;;;4970136;28;20031;-86
2023/03/30 07:28:37;;;;;;;14.18;2.53;;;13.60;71.70;;;;;;4969680;28;20406;-86
2023/03/30 07:31:08;;;;;;;10.55;2.80;;;13.60;71.70;;;;;;4982891;28;20044;-86
2023/03/30 07:33:36;;;;;;;11.10;2.90;;;13.60;71.80;;;;;;4966638;28;20062;-85
2023/03/30 07:36:04;;;;;;;11.73;3.65;;;13.60;71.70;;;;;;4967927;28;20581;-86
2023/03/30 07:38:32;;;;;;;7.82;3.58;;;13.70;71.90;;;;;;4970812;28;20050;-85
2023/03/30 07:40:59;;;;;;;11.50;3.17;;;13.70;71.90;;;;;;4966765;28;20039;-81
2023/03/30 07:43:27;;;;;;;9.18;3.55;;;13.80;72.00;;;;;;4967810;28;20057;-87
2023/03/30 07:45:54;;;;;;;13.85;3.03;;;14.00;72.10;;;;;;4968669;28;20022;-84
2023/03/30 07:48:27;;;;;;;11.95;3.03;;;14.20;72.10;;;;;;4968668;28;20104;-85
2023/03/30 07:51:05;;;;;;;12.10;3.67;;;14.50;72.20;;;;;;4971230;28;20026;-84
2023/03/30 07:53:36;;;;;;;11.02;3.42;;;14.80;72.10;;;;;;4964953;28;20050;-85
2023/03/30 07:56:08;;;;;;;11.77;3.63;;;15.00;71.80;;;;;;4983704;28;20027;-86
2023/03/30 07:58:41;;;;;;;11.13;3.42;;;15.20;71.60;;;;;;4963874;28;20161;-87
2023/03/30 08:01:09;;;;;;;9.38;3.17;;;15.30;71.50;;;;;;4969816;28;20046;-88
2023/03/30 08:03:36;;;;;;;9.38;3.28;;;15.30;71.40;;;;;;4967425;28;20118;-84
2023/03/30 08:06:04;;;;;;;9.68;3.53;;;15.50;71.60;;;;;;4969245;28;20047;-85
2023/03/30 08:08:34;;;;;;;12.73;3.30;;;15.70;71.50;;;;;;4968320;28;20089;-86
2023/03/30 08:11:01;;;;;;;8.18;3.20;;;16.00;71.50;;;;;;4983567;28;20027;-82
2023/03/30 08:13:27;;;;;;;12.27;3.40;;;16.20;71.30;;;;;;4983581;28;20038;-83
2023/03/30 08:15:53;;;;;;;8.57;2.40;;;16.30;71.20;;;;;;4956933;28;20034;-90
2023/03/30 08:18:19;;;;;;;11.35;2.85;;;16.30;71.00;;;;;;4955578;28;20039;-87
2023/03/30 08:20:50;;;;;;;11.75;3.97;;;16.30;70.90;;;;;;4984768;28;20102;-87
2023/03/30 08:23:16;;;;;;;13.88;3.13;;;16.40;71.00;;;;;;4964759;28;20053;-87
2023/03/30 08:25:42;;;;;;;8.60;3.05;;;16.40;71.00;;;;;;4967481;28;20121;-85
2023/03/30 08:28:08;;;;;;;12.55;4.03;;;16.50;71.10;;;;;;4967318;28;20034;-86
2023/03/30 08:30:34;;;;;;;17.20;4.15;;;16.50;70.90;;;;;;4982563;28;20054;-86
2023/03/30 08:33:00;;;;;;;11.05;3.05;;;16.60;71.00;;;;;;4966769;28;20294;-86
2023/03/30 08:35:26;;;;;;;11.82;3.45;;;16.70;71.50;;;;;;4966142;28;20030;-84
2023/03/30 08:37:53;;;;;;;16.05;3.13;;;16.70;70.80;;;;;;4966379;28;20634;-85
2023/03/30 08:40:19;;;;;;;10.68;2.80;;;16.80;70.80;;;;;;4967824;28;20262;-85
2023/03/30 08:43:09;;;;;;;10.15;3.25;;;16.80;70.70;;;;;;4968250;28;20519;-85
2023/03/30 08:45:39;;;;;;;10.57;2.63;;;16.90;70.70;;;;;;4954554;28;20034;-92
2023/03/30 08:48:19;;;;;;;17.13;4.30;;;16.90;70.60;;;;;;4983335;28;20434;-84
2023/03/30 08:51:30;;;;;;;12.50;3.92;;;17.00;70.60;;;;;;4963377;28;20037;-84
2023/03/30 08:54:01;;;;;;;13.70;3.83;;;17.00;70.50;;;;;;4945744;28;20406;-84
2023/03/30 08:56:36;;;;;;;12.82;4.28;;;17.10;70.70;;;;;;4966331;28;20448;-83
2023/03/30 08:59:39;;;;;;;8.82;2.85;;;17.10;70.60;;;;;;4964776;28;20062;-84
2023/03/30 09:02:19;;;;;;;12.33;3.63;;;17.30;70.70;;;;;;4969327;28;20494;-86
2023/03/30 09:05:17;;;;;;;12.45;3.65;;;17.50;70.70;;;;;;4981866;28;20034;-86
2023/03/30 09:07:53;;;;;;;9.63;3.17;;;17.70;70.70;;;;;;4979529;28;20537;-83
2023/03/30 09:10:21;;;;;;;15.60;4.28;;;17.90;70.60;;;;;;4974237;28;20039;-83
2023/03/30 09:13:00;;;;;;;11.30;2.90;;;18.10;70.40;;;;;;4961604;28;20039;-83
2023/03/30 09:15:55;;;;;;;15.75;4.53;;;18.30;70.30;;;;;;4982650;28;20041;-83
2023/03/30 09:18:30;;;;;;;17.02;5.72;;;18.50;70.20;;;;;;4966319;28;20038;-85
2023/03/30 09:21:01;;;;;;;12.45;4.07;;;18.60;70.00;;;;;;4978839;28;20050;-84
2023/03/30 09:23:29;;;;;;;10.75;3.20;;;18.60;69.90;;;;;;4962773;28;20062;-84
2023/03/30 09:26:22;;;;;;;11.85;3.20;;;18.70;70.10;;;;;;4970819;28;20493;-85
2023/03/30 09:29:18;;;;;;;12.63;3.55;;;18.70;70.30;;;;;;4971901;28;20124;-87
2023/03/30 09:32:09;;;;;;;12.10;3.53;;;18.80;70.50;;;;;;4959769;28;20067;-88
2023/03/30 09:35:02;;;;;;;8.30;2.83;;;18.90;70.60;;;;;;4966879;28;20053;-86
2023/03/30 09:37:30;;;;;;;11.65;3.40;;;19.00;70.80;;;;;;4967297;28;20026;-86
2023/03/30 09:39:57;;;;;;;12.18;3.65;;;19.10;70.70;;;;;;4971816;28;20070;-87
2023/03/30 09:42:32;;;;;;;14.25;4.25;;;19.20;70.60;;;;;;4967994;28;20049;-87
2023/03/30 09:45:00;;;;;;;11.57;3.83;;;19.20;70.40;;;;;;4966014;28;20110;-86
2023/03/30 09:47:35;;;;;;;15.10;3.78;;;19.20;70.30;;;;;;4982145;28;20075;-88
2023/03/30 09:50:09;;;;;;;10.00;2.88;;;19.20;70.20;;;;;;4968678;28;20037;-89
2023/03/30 09:52:39;;;;;;;12.93;4.65;;;19.20;70.20;;;;;;4967114;28;20287;-90
2023/03/30 09:55:20;;;;;;;12.63;3.83;;;19.20;70.30;;;;;;4967128;28;20065;-87
2023/03/30 09:57:54;;;;;;;19.42;4.63;;;19.20;70.20;;;;;;4968534;28;20065;-87
2023/03/30 10:00:32;;;;;;;13.77;3.50;;;19.20;70.10;;;;;;4983415;28;20053;-89
2023/03/30 10:03:03;;;;;;;13.73;3.03;;;19.30;70.10;;;;;;4967490;28;20053;-86
2023/03/30 10:05:31;;;;;;;12.13;4.00;;;19.30;70.00;;;;;;4982863;28;20038;-86
2023/03/30 10:08:18;;;;;;;10.88;3.17;;;19.40;70.10;;;;;;4968945;28;20069;-87
2023/03/30 10:10:44;;;;;;;10.73;3.90;;;19.50;69.90;;;;;;4987803;28;20039;-85
2023/03/30 10:13:13;;;;;;;11.23;3.28;;;19.70;69.70;;;;;;4974121;28;20106;-87
2023/03/30 10:15:45;;;;;;;10.98;3.55;;;19.90;69.60;;;;;;4983695;28;20510;-86
2023/03/30 10:18:18;;;;;;;12.75;3.40;;;20.10;69.60;;;;;;4970705;28;20069;-86
2023/03/30 10:21:03;;;;;;;10.50;4.13;;;20.30;69.30;;;;;;4977977;28;20514;-85
2023/03/30 10:23:32;;;;;;;14.57;4.50;;;20.50;69.10;;;;;;4981550;28;20019;-86
2023/03/30 10:26:02;;;;;;;12.38;3.25;;;20.70;68.90;;;;;;4983511;28;20042;-88
2023/03/30 10:28:32;;;;;;;11.05;3.47;;;20.80;68.50;;;;;;4969099;28;20187;-87
2023/03/30 10:31:15;;;;;;;11.32;3.88;;;21.00;68.50;;;;;;4968958;28;20572;-89
2023/03/30 10:33:43;;;;;;;8.60;3.15;;;21.10;68.10;;;;;;4969124;28;20043;-86
2023/03/30 10:36:12;;;;;;;13.05;4.47;;;21.20;68.10;;;;;;4966696;28;20582;-86
2023/03/30 10:38:40;;;;;;;16.55;4.47;;;21.30;67.80;;;;;;4969362;28;20247;-86
2023/03/30 10:41:11;;;;;;;14.50;4.60;;;21.40;67.60;;;;;;4962041;28;20043;-88
2023/03/30 10:43:38;;;;;;;13.68;3.78;;;21.50;67.50;;;;;;4969086;28;20062;-86
2023/03/30 10:46:14;;;;;;;16.10;4.63;;;21.60;67.90;;;;;;4985328;28;20046;-85
2023/03/30 10:48:40;;;;;;;14.93;4.20;;;21.70;66.90;;;;;;4966486;28;20031;-87
2023/03/30 10:51:16;;;;;;;26.63;5.22;;;21.90;66.90;;;;;;4970757;28;20042;-86
2023/03/30 10:53:47;;;;;;;12.45;3.90;;;22.00;66.60;;;;;;4985663;28;20051;-89
2023/03/30 10:56:36;;;;;;;9.50;3.20;;;22.10;66.60;;;;;;4979161;28;20030;-84
2023/03/30 10:59:25;;;;;;;12.27;3.17;;;22.20;66.20;;;;;;4980056;28;20129;-84
2023/03/30 11:02:12;;;;;;;11.65;3.95;;;22.30;66.00;;;;;;4974676;28;20048;-84
2023/03/30 11:04:48;;;;;;;10.13;3.92;;;22.40;65.90;;;;;;4967646;28;20039;-83
2023/03/30 11:07:32;;;;;;;16.88;5.63;;;22.50;66.10;;;;;;4961363;28;20114;-82
2023/03/30 11:10:07;;;;;;;13.40;4.13;;;22.50;65.80;;;;;;4962094;28;20535;-82
2023/03/30 11:12:40;;;;;;;15.98;4.28;;;22.50;65.60;;;;;;4968728;28;20178;-86
2023/03/30 11:15:32;;;;;;;19.55;5.47;;;22.50;65.40;;;;;;4965450;28;20118;-86
2023/03/30 11:18:20;;;;;;;24.27;5.60;;;22.50;65.20;;;;;;4967377;28;20450;-84
2023/03/30 11:20:59;;;;;;;16.23;4.07;;;22.50;65.10;;;;;;4967901;28;20023;-85
2023/03/30 11:23:41;;;;;;;15.98;4.70;;;22.60;65.30;;;;;;4967555;28;20133;-85
2023/03/30 11:26:11;;;;;;;13.27;4.47;;;22.60;64.90;;;;;;4970477;28;20034;-85
2023/03/30 11:28:59;;;;;;;13.13;4.40;;;22.60;64.90;;;;;;4970526;28;20275;-83
2023/03/30 11:32:08;;;;;;;15.77;4.15;;;22.60;64.30;;;;;;4969665;28;20106;-84
2023/03/30 11:35:12;;;;;;;14.77;5.03;;;22.50;64.20;;;;;;4968977;28;20542;-85
2023/03/30 11:38:16;;;;;;;15.02;4.13;;;22.40;64.30;;;;;;4984083;28;20058;-85
2023/03/30 11:40:45;;;;;;;;;;;22.30;64.30;;;;;;4970081;28;20456;-87
2023/03/30 11:43:21;;;;;;;14.63;4.22;;;22.20;64.80;;;;;;4967978;28;19914;-87
2023/03/30 11:45:53;;;;;;;13.10;4.30;;;22.00;64.60;;;;;;4971198;28;20043;-88
2023/03/30 11:48:23;;;;;;;12.67;3.43;;;21.90;64.40;;;;;;4966021;28;20049;-82
2023/03/30 11:51:10;;;;;;;17.13;4.75;;;21.80;64.50;;;;;;4968680;28;20089;-85
2023/03/30 11:53:55;;;;;;;21.08;4.95;;;21.70;64.40;;;;;;4963772;28;20131;-84
2023/03/30 11:56:45;;;;;;;16.27;4.53;;;21.60;64.10;;;;;;4969896;28;20046;-87
2023/03/30 11:59:44;;;;;;;15.77;4.30;;;21.40;64.00;;;;;;4965423;28;20166;-86
2023/03/30 12:02:43;;;;;;;12.77;4.80;;;21.30;64.00;;;;;;4962238;28;20473;-84
2023/03/30 12:05:26;;;;;;;11.75;3.78;;;21.20;64.00;;;;;;4967503;28;20039;-83
2023/03/30 12:08:11;;;;;;;19.20;4.28;;;21.10;64.10;;;;;;4966653;28;20030;-83
2023/03/30 12:10:39;;;;;;;10.80;4.28;;;21.10;64.10;;;;;;4963351;28;20038;-83
2023/03/30 12:13:14;;;;;;;14.40;3.88;;;21.00;64.10;;;;;;4964972;28;20043;-83
2023/03/30 12:16:03;;;;;;;13.88;4.43;;;21.00;64.20;;;;;;4980353;28;20148;-81
2023/03/30 12:18:53;;;;;;;12.50;4.78;;;21.00;64.10;;;;;;4965190;28;20522;-82
2023/03/30 12:21:41;;;;;;;15.35;4.18;;;21.00;64.10;;;;;;4962656;28;20031;-80
2023/03/30 12:24:52;;;;;;;15.65;4.95;;;20.90;63.90;;;;;;4963520;28;20039;-81
2023/03/30 12:27:18;;;;;;;12.13;3.90;;;20.90;64.00;;;;;;4964881;28;20056;-82
2023/03/30 12:29:50;;;;;;;12.20;3.90;;;20.90;64.20;;;;;;4964215;28;20043;-81
2023/03/30 12:32:23;;;;;;;10.77;3.78;;;20.80;64.00;;;;;;4965046;28;20138;-81
2023/03/30 12:34:49;;;;;;;;;;;20.90;64.10;;;;;;4962023;28;20039;-83
2023/03/30 12:37:32;;;;;;;12.65;3.80;;;20.90;64.30;;;;;;4966381;28;20200;-83
2023/03/30 12:40:08;;;;;;;10.75;3.88;;;21.00;64.20;;;;;;4965048;28;20109;-81
2023/03/30 12:42:45;;;;;;;13.15;3.70;;;21.00;64.00;;;;;;4960642;28;20682;-82
2023/03/30 12:45:14;;;;;;;12.40;3.47;;;21.10;63.90;;;;;;4979907;28;20035;-81
2023/03/30 12:47:52;;;;;;;10.95;3.85;;;21.20;63.90;;;;;;4962845;28;20133;-82
2023/03/30 12:50:33;;;;;;;13.57;3.45;;;21.30;63.80;;;;;;4968519;28;20116;-83
2023/03/30 12:53:43;;;;;;;13.77;3.35;;;21.50;63.90;;;;;;4956250;28;20050;-83
2023/03/30 12:56:19;;;;;;;9.57;3.17;;;21.60;63.70;;;;;;4970457;28;20031;-87
2023/03/30 12:59:15;;;;;;;12.48;3.78;;;22.00;63.70;;;;;;4975513;28;20070;-84
2023/03/30 13:02:01;;;;;;;9.82;3.15;;;22.10;63.20;;;;;;4985152;28;20057;-87
2023/03/30 13:04:37;;;;;;;13.38;4.90;;;22.30;62.80;;;;;;4967476;28;20114;-87
2023/03/30 13:07:14;;;;;;;12.27;3.67;;;22.40;62.90;;;;;;4969491;28;20043;-87
2023/03/30 13:09:56;;;;;;;13.82;3.75;;;22.40;62.80;;;;;;4968582;28;20573;-87
2023/03/30 13:12:37;;;;;;;13.40;4.23;;;22.50;62.80;;;;;;4967055;28;20188;-86
2023/03/30 13:15:39;;;;;;;12.82;3.85;;;22.60;62.70;;;;;;4981256;28;20374;-84
2023/03/30 13:18:08;;;;;;;13.85;3.80;;;22.80;62.60;;;;;;4960351;28;20695;-85
2023/03/30 13:20:55;;;;;;;10.73;3.47;;;23.00;62.70;;;;;;4967046;28;20031;-89
2023/03/30 13:23:22;;;;;;;10.70;4.22;;;23.20;62.50;;;;;;4951135;28;20608;-85
2023/03/30 13:26:24;;;;;;;11.90;3.30;;;23.40;62.60;;;;;;4976340;28;20030;-85
2023/03/30 13:28:53;;;;;;;12.13;4.18;;;23.60;62.20;;;;;;4946121;28;20034;-86
2023/03/30 13:31:30;;;;;;;15.20;4.13;;;23.80;62.10;;;;;;4966590;28;20557;-86